Time;durP1;ratioP1;P1;durP2;ratioP2;P2;SDS_P1;SDS_P2;PMS_P1;PMS_P2;Temp;Humidity;BMP_temperature;BMP_pressure;BME280_temperature;BME280_humidity;BME280_pressure;Samples;Min_cycle;Max_cycle;Signal;HPM_P1;HPM_P2
2022/12/23 00:00:11;;;;;;;;;;;11.60;99.90;11.90;99443.00;;;;345451;28;91775;-92
2022/12/23 00:00:23;;;;;;;;;;;11.60;99.90;12.00;99449.00;;;;345857;28;82573;-93
2022/12/23 00:00:35;;;;;;;;;;;11.50;99.90;12.00;99445.00;;;;344324;28;88322;-92
2022/12/23 00:00:55;;;;;;;;;;;11.60;99.90;12.10;99443.00;;;;344534;28;83528;-93
2022/12/23 00:01:07;;;;;;;;;;;11.60;99.90;12.10;99444.00;;;;342659;28;88560;-92
2022/12/23 00:01:19;;;;;;;;;;;11.60;99.90;12.00;99445.00;;;;344461;28;83486;-92
2022/12/23 00:01:30;;;;;;;;;;;11.60;99.90;11.90;99444.00;;;;347183;28;88068;-93
2022/12/23 00:01:42;;;;;;;;;;;11.60;99.90;11.90;99441.00;;;;344667;28;82503;-93
2022/12/23 00:01:54;;;;;;;;;;;11.60;99.90;11.90;99446.00;;;;345241;28;91897;-92
2022/12/23 00:02:06;;;;;;;;;;;11.60;99.90;11.90;99438.00;;;;346135;28;82405;-93
2022/12/23 00:02:18;;;;;;;;;;;11.60;99.90;11.90;99439.00;;;;345750;28;89736;-93
2022/12/23 00:02:30;;;;;;;;;;;11.60;99.90;11.90;99449.00;;;;343091;28;83459;-93
2022/12/23 00:02:42;;;;;;;;;;;11.60;99.90;12.00;99443.00;;;;343375;28;86619;-92
2022/12/23 00:02:54;;;;;;;;;;;11.60;99.90;12.00;99448.00;;;;344766;28;83278;-92
2022/12/23 00:03:06;;;;;;;;;;;11.60;99.90;12.10;99438.00;;;;344298;28;89518;-93
2022/12/23 00:03:18;;;;;;;;;;;11.60;99.90;12.10;99438.00;;;;343477;28;83103;-93
2022/12/23 00:03:31;;;;;;;;;;;11.60;99.90;12.10;99437.00;;;;343008;28;89147;-92
2022/12/23 00:03:43;;;;;;;;;;;11.60;99.90;12.20;99451.00;;;;343322;28;83460;-93
2022/12/23 00:03:56;;;;;;;;;;;11.60;99.90;12.10;99445.00;;;;342032;28;89659;-93
2022/12/23 00:04:08;;;;;;;;;;;11.60;99.90;12.00;99446.00;;;;344793;28;83178;-93
2022/12/23 00:04:19;;;;;;;;;;;11.60;99.90;12.00;99452.00;;;;345472;28;91951;-93
2022/12/23 00:04:31;;;;;;;;;;;11.60;99.90;12.00;99445.00;;;;344700;28;83392;-93
2022/12/23 00:04:43;;;;;;;;;;;11.60;99.90;12.00;99444.00;;;;344400;28;89134;-92
2022/12/23 00:04:55;;;;;;;;;;;11.70;99.90;12.00;99444.00;;;;343115;28;82601;-93
2022/12/23 00:05:07;;;;;;;;;;;11.60;99.90;12.00;99445.00;;;;345359;28;90040;-92
2022/12/23 00:05:19;;;;;;;;;;;11.60;99.90;12.10;99434.00;;;;344372;28;82500;-92
2022/12/23 00:05:35;;;;;;;;;;;11.70;99.90;12.10;99442.00;;;;344083;28;92222;-92
2022/12/23 00:05:49;;;;;;;;;;;11.70;99.90;12.10;99441.00;;;;344607;28;83365;-93
2022/12/23 00:06:01;;;;;;;;;;;11.60;99.90;12.00;99441.00;;;;342599;28;93136;-92
2022/12/23 00:06:14;;;;;;;;;;;11.70;99.90;12.10;99435.00;;;;342034;28;83347;-94
2022/12/23 00:06:26;;;;;;;;;;;11.70;99.90;12.20;99439.00;;;;344334;28;88298;-92
2022/12/23 00:06:38;;;;;;;;;;;11.70;99.90;12.20;99436.00;;;;347325;28;82587;-93
2022/12/23 00:06:49;;;;;;;;;;;11.70;99.90;12.10;99440.00;;;;344399;28;88511;-92
2022/12/23 00:07:01;;;;;;;;;;;11.70;99.90;12.20;99434.00;;;;344802;28;83374;-93
2022/12/23 00:07:13;;;;;;;;;;;11.70;99.90;12.10;99435.00;;;;344331;28;88664;-93
2022/12/23 00:07:25;;;;;;;;;;;11.70;99.90;12.10;99440.00;;;;344525;28;82524;-93
2022/12/23 00:07:36;;;;;;;;;;;11.70;99.90;12.10;99431.00;;;;344400;28;87933;-93
2022/12/23 00:07:48;;;;;;;;;;;11.70;99.90;12.10;99434.00;;;;344553;28;82425;-92
2022/12/23 00:08:00;;;;;;;;;;;11.70;99.90;12.00;99437.00;;;;344245;28;89935;-93
2022/12/23 00:08:12;;;;;;;;;;;11.70;99.90;12.00;99428.00;;;;343447;28;83279;-92
2022/12/23 00:08:24;;;;;;;;;;;11.70;99.90;12.10;99435.00;;;;344181;28;90305;-92
2022/12/23 00:08:36;;;;;;;;;;;11.70;99.90;12.00;99435.00;;;;344844;28;83296;-93
2022/12/23 00:08:47;;;;;;;;;;;11.70;99.90;12.00;99437.00;;;;345662;28;91503;-93
2022/12/23 00:08:59;;;;;;;;;;;11.70;99.90;12.00;99430.00;;;;344604;28;82478;-93
2022/12/23 00:09:11;;;;;;;;;;;11.70;99.90;12.10;99437.00;;;;341530;28;90501;-92
2022/12/23 00:09:23;;;;;;;;;;;11.70;99.90;12.00;99430.00;;;;344800;28;83435;-92
2022/12/23 00:09:34;;;;;;;;;;;11.60;99.90;12.10;99437.00;;;;344431;28;90486;-93
2022/12/23 00:09:46;;;;;;;;;;;11.60;99.90;12.10;99433.00;;;;346197;28;82509;-91
2022/12/23 00:09:58;;;;;;;;;;;11.70;99.90;12.00;99440.00;;;;342788;28;89565;-92
2022/12/23 00:10:10;;;;;;;;;;;11.70;99.90;12.00;99437.00;;;;344621;28;82693;-92
2022/12/23 00:10:22;;;;;;;;;;;11.70;99.90;12.00;99428.00;;;;341828;28;86644;-93
2022/12/23 00:10:37;;;;;;;;;;;11.70;99.90;12.00;99436.00;;;;343433;28;82276;-93
2022/12/23 00:10:49;;;;;;;;;;;11.70;99.90;12.00;99440.00;;;;344183;28;90423;-93
2022/12/23 00:11:02;;;;;;;;;;;11.60;99.90;12.00;99436.00;;;;344862;28;83280;-93
2022/12/23 00:11:16;;;;;;;;;;;11.60;99.90;12.00;99432.00;;;;344189;28;90901;-93
2022/12/23 00:11:28;;;;;;;;;;;11.60;99.90;12.00;99438.00;;;;343628;28;82388;-92
2022/12/23 00:15:04;;;;;;;;;;;11.60;99.90;12.00;99434.00;;;;344171;28;90210;-92
2022/12/23 00:15:06;;;;;;;;;;;11.70;99.90;12.20;99441.00;;;;341518;28;87900;-90
2022/12/23 00:15:18;;;;;;;;;;;11.70;99.90;12.10;99436.00;;;;339286;28;83274;-93
2022/12/23 00:15:30;;;;;;;;;;;11.70;99.90;12.20;99440.00;;;;336205;28;89726;-93
2022/12/23 00:15:42;;;;;;;;;;;11.70;99.90;12.20;99428.00;;;;341769;28;82453;-92
2022/12/23 00:16:03;;;;;;;;;;;11.70;99.90;12.20;99436.00;;;;341515;28;88806;-93
2022/12/23 00:16:15;;;;;;;;;;;11.70;99.90;12.20;99439.00;;;;340694;28;83468;-93
2022/12/23 00:16:27;;;;;;;;;;;11.70;99.90;12.10;99428.00;;;;340107;28;90054;-91
2022/12/23 00:16:39;;;;;;;;;;;11.70;99.90;12.20;99427.00;;;;339342;28;83456;-92
2022/12/23 00:16:51;;;;;;;;;;;11.70;99.90;12.30;99432.00;;;;338989;28;88267;-92
2022/12/23 00:17:03;;;;;;;;;;;11.70;99.90;12.20;99432.00;;;;337790;28;82611;-92
2022/12/23 00:17:36;;;;;;;;;;;11.70;99.90;12.20;99427.00;;;;338726;28;90514;-93
2022/12/23 00:17:48;;;;;;;;;;;11.70;99.90;12.20;99432.00;;;;339195;28;83362;-92
2022/12/23 00:18:00;;;;;;;;;;;11.70;99.90;12.20;99431.00;;;;340280;28;87922;-93
2022/12/23 00:18:12;;;;;;;;;;;11.80;99.90;12.20;99429.00;;;;338022;28;82468;-93
2022/12/23 00:18:23;;;;;;;;;;;11.70;99.90;12.20;99430.00;;;;340057;28;91573;-92
2022/12/23 00:18:35;;;;;;;;;;;11.70;99.90;12.20;99431.00;;;;340655;28;83577;-92
2022/12/23 00:18:47;;;;;;;;;;;11.80;99.90;12.20;99436.00;;;;338831;28;91291;-93
2022/12/23 00:18:59;;;;;;;;;;;11.70;99.90;12.30;99433.00;;;;340337;28;83538;-92
2022/12/23 00:19:11;;;;;;;;;;;11.70;99.90;12.20;99440.00;;;;341297;28;91238;-93
2022/12/23 00:19:23;;;;;;;;;;;11.70;99.90;12.30;99437.00;;;;339297;28;83504;-93
2022/12/23 00:19:34;;;;;;;;;;;11.70;99.90;12.30;99442.00;;;;340278;28;89463;-92
2022/12/23 00:19:46;;;;;;;;;;;11.80;99.90;12.20;99438.00;;;;339305;28;82381;-92
2022/12/23 00:19:58;;;;;;;;;;;11.80;99.90;12.30;99434.00;;;;337270;28;91099;-92
2022/12/23 00:20:12;;;;;;;;;;;11.80;99.90;12.30;99440.00;;;;337834;28;83920;-92
2022/12/23 00:20:23;;;;;;;;;;;11.80;99.90;12.30;99437.00;;;;337487;28;89934;-93
2022/12/23 00:20:35;;;;;;;;;;;11.80;99.90;12.20;99430.00;;;;340003;28;82648;-93
2022/12/23 00:20:47;;;;;;;;;;;11.80;99.90;12.20;99438.00;;;;340147;28;90358;-93
2022/12/23 00:21:03;;;;;;;;;;;11.70;99.90;12.20;99440.00;;;;339130;28;83564;-93
2022/12/23 00:21:20;;;;;;;;;;;11.80;99.90;12.20;99443.00;;;;338971;28;88577;-93
2022/12/23 00:21:32;;;;;;;;;;;11.80;99.90;12.30;99449.00;;;;339277;28;82470;-93
2022/12/23 00:21:44;;;;;;;;;;;11.80;99.90;12.20;99447.00;;;;338829;28;88944;-92
2022/12/23 00:21:56;;;;;;;;;;;11.80;99.90;12.20;99439.00;;;;340452;28;82666;-92
2022/12/23 00:22:07;;;;;;;;;;;11.80;99.90;12.20;99430.00;;;;340141;28;89514;-93
2022/12/23 00:23:03;;;;;;;;;;;11.80;99.90;12.20;99435.00;;;;339138;28;82446;-92
2022/12/23 00:23:06;;;;;;;;;;;11.80;99.90;12.20;99433.00;;;;340065;28;89521;-94
2022/12/23 00:23:18;;;;;;;;;;;11.80;99.90;12.10;99431.00;;;;339086;28;82780;-93
2022/12/23 00:23:33;;;;;;;;;;;11.80;99.90;12.10;99436.00;;;;338903;28;88865;-93
2022/12/23 00:23:46;;;;;;;;;;;11.80;99.90;12.10;99427.00;;;;340645;28;83276;-93
2022/12/23 00:23:58;;;;;;;;;;;11.80;99.90;12.20;99423.00;;;;341364;28;89055;-93
2022/12/23 00:24:10;;;;;;;;;;;11.80;99.90;12.20;99427.00;;;;339259;28;83476;-93
2022/12/23 00:24:22;;;;;;;;;;;11.80;99.90;12.20;99441.00;;;;339279;28;87937;-93
2022/12/23 00:24:34;;;;;;;;;;;11.80;99.90;12.20;99442.00;;;;340625;28;83477;-93
2022/12/23 00:24:45;;;;;;;;;;;11.80;99.90;12.20;99425.00;;;;337487;28;89336;-93
2022/12/23 00:24:57;;;;;;;;;;;11.80;99.90;12.20;99434.00;;;;336764;28;83245;-93
2022/12/23 00:25:10;;;;;;;;;;;11.80;99.90;12.20;99436.00;;;;337561;28;88127;-92
2022/12/23 00:25:39;;;;;;;;;;;11.80;99.90;12.10;99433.00;;;;338072;28;82680;-93
2022/12/23 00:25:51;;;;;;;;;;;11.80;99.90;12.10;99440.00;;;;338882;28;89893;-93
2022/12/23 00:26:03;;;;;;;;;;;11.80;99.90;12.10;99443.00;;;;340752;28;82418;-92
2022/12/23 00:26:20;;;;;;;;;;;11.70;99.90;12.10;99434.00;;;;338839;28;89480;-92
2022/12/23 00:26:32;;;;;;;;;;;11.70;99.90;12.20;99438.00;;;;337865;28;83357;-92
2022/12/23 00:26:44;;;;;;;;;;;11.80;99.90;12.20;99436.00;;;;336036;28;91672;-93
2022/12/23 00:26:56;;;;;;;;;;;11.80;99.90;12.30;99434.00;;;;339310;28;83516;-93
2022/12/23 00:27:08;;;;;;;;;;;11.80;99.90;12.30;99433.00;;;;340161;28;88733;-92
2022/12/23 00:27:19;;;;;;;;;;;11.80;99.90;12.30;99438.00;;;;339559;28;83799;-93
2022/12/23 00:27:31;;;;;;;;;;;11.80;99.90;12.20;99431.00;;;;340333;28;87227;-94
2022/12/23 00:28:00;;;;;;;;;;;11.80;99.90;12.20;99426.00;;;;339251;28;83329;-93
2022/12/23 00:28:16;;;;;;;;;;;11.80;99.90;12.20;99438.00;;;;339950;28;91472;-92
2022/12/23 00:28:28;;;;;;;;;;;11.80;99.90;12.20;99435.00;;;;340591;28;83334;-92
2022/12/23 00:28:40;;;;;;;;;;;11.80;99.90;12.20;99439.00;;;;338733;28;91165;-93
2022/12/23 00:28:51;;;;;;;;;;;11.80;99.90;12.20;99437.00;;;;340664;28;82331;-93
2022/12/23 00:29:03;;;;;;;;;;;11.80;99.90;12.20;99433.00;;;;338686;28;91662;-93
2022/12/23 00:29:15;;;;;;;;;;;11.80;99.90;12.20;99425.00;;;;340262;28;82588;-93
2022/12/23 00:29:27;;;;;;;;;;;11.80;99.90;12.20;99439.00;;;;338869;28;90263;-93
2022/12/23 00:29:39;;;;;;;;;;;11.80;99.90;12.20;99432.00;;;;339103;28;83293;-93
2022/12/23 00:29:51;;;;;;;;;;;11.80;99.90;12.20;99437.00;;;;341581;28;88726;-93
2022/12/23 00:30:04;;;;;;;;;;;11.80;99.90;12.10;99427.00;;;;340688;28;82558;-93
2022/12/23 00:30:16;;;;;;;;;;;11.80;99.90;12.10;99434.00;;;;337190;28;91544;-92
2022/12/23 00:30:28;;;;;;;;;;;11.80;99.90;12.10;99439.00;;;;337742;28;82454;-92
2022/12/23 00:30:53;;;;;;;;;;;11.80;99.90;12.10;99431.00;;;;337623;28;88322;-93
2022/12/23 00:31:05;;;;;;;;;;;11.80;99.90;12.10;99435.00;;;;336669;28;83235;-93
2022/12/23 00:31:18;;;;;;;;;;;11.80;99.90;12.10;99422.00;;;;340143;28;89636;-92
2022/12/23 00:31:29;;;;;;;;;;;11.80;99.90;12.10;99433.00;;;;340705;28;83389;-93
2022/12/23 00:31:41;;;;;;;;;;;11.80;99.90;12.10;99425.00;;;;338972;28;87338;-93
2022/12/23 00:31:53;;;;;;;;;;;11.80;99.90;12.20;99420.00;;;;340567;28;83459;-93
2022/12/23 00:32:05;;;;;;;;;;;11.80;99.90;12.10;99424.00;;;;340253;28;89125;-93
2022/12/23 00:32:17;;;;;;;;;;;11.80;99.90;12.10;99427.00;;;;339268;28;83444;-93
2022/12/23 00:32:29;;;;;;;;;;;11.80;99.90;12.10;99422.00;;;;338698;28;89948;-93
2022/12/23 00:32:41;;;;;;;;;;;11.80;99.90;12.10;99420.00;;;;340669;28;82649;-93
2022/12/23 00:32:53;;;;;;;;;;;11.80;99.90;12.20;99426.00;;;;339903;28;90724;-93
2022/12/23 00:33:04;;;;;;;;;;;11.80;99.90;12.10;99425.00;;;;340714;28;82287;-93
2022/12/23 00:33:21;;;;;;;;;;;11.80;99.90;12.10;99427.00;;;;338719;28;88314;-93
2022/12/23 00:33:35;;;;;;;;;;;11.80;99.90;12.10;99422.00;;;;337792;28;83518;-92
2022/12/23 00:33:48;;;;;;;;;;;11.80;99.90;12.10;99428.00;;;;341264;28;90985;-93
2022/12/23 00:34:00;;;;;;;;;;;11.80;99.90;12.10;99431.00;;;;340823;28;83384;-93
2022/12/23 00:34:12;;;;;;;;;;;11.70;99.90;12.10;99430.00;;;;340093;28;88625;-93
2022/12/23 00:34:23;;;;;;;;;;;11.80;99.90;12.10;99431.00;;;;339357;28;82381;-93
2022/12/23 00:34:35;;;;;;;;;;;11.80;99.90;12.10;99427.00;;;;338599;28;91694;-93
2022/12/23 00:34:47;;;;;;;;;;;11.70;99.90;12.10;99428.00;;;;340414;28;83480;-93
2022/12/23 00:34:59;;;;;;;;;;;11.70;99.90;12.10;99426.00;;;;338960;28;87779;-92
2022/12/23 00:35:10;;;;;;;;;;;11.80;99.90;12.10;99424.00;;;;340603;28;83951;-93
2022/12/23 00:35:22;;;;;;;;;;;11.80;99.90;12.10;99426.00;;;;339931;28;90849;-94
2022/12/23 00:35:34;;;;;;;;;;;11.70;99.90;12.10;99427.00;;;;338038;28;83327;-93
2022/12/23 00:35:46;;;;;;;;;;;11.80;99.90;12.10;99423.00;;;;340030;28;88974;-92
2022/12/23 00:35:58;;;;;;;;;;;11.70;99.90;12.10;99424.00;;;;340521;28;83453;-92
2022/12/23 00:36:22;;;;;;;;;;;11.70;99.90;12.20;99430.00;;;;340283;28;87431;-93
2022/12/23 00:36:36;;;;;;;;;;;11.70;99.90;12.20;99423.00;;;;338933;28;82599;-92
2022/12/23 00:36:48;;;;;;;;;;;11.80;99.90;12.20;99426.00;;;;337538;28;90277;-93
2022/12/23 00:37:00;;;;;;;;;;;11.80;99.90;12.20;99424.00;;;;339270;28;83325;-93
2022/12/23 00:37:11;;;;;;;;;;;11.70;99.90;12.20;99425.00;;;;339988;28;90865;-93
2022/12/23 00:37:23;;;;;;;;;;;11.80;99.90;12.20;99428.00;;;;339312;28;82712;-93
2022/12/23 00:37:35;;;;;;;;;;;11.80;99.90;12.20;99430.00;;;;338635;28;90318;-93
2022/12/23 00:37:47;;;;;;;;;;;11.80;99.90;12.20;99430.00;;;;339022;28;83419;-92
2022/12/23 00:37:58;;;;;;;;;;;11.80;99.90;12.20;99428.00;;;;340089;28;89319;-92
2022/12/23 00:38:10;;;;;;;;;;;11.80;99.90;12.20;99425.00;;;;337689;28;82576;-93
2022/12/23 00:42:58;;;;;;;;;;;11.80;99.90;12.10;99439.00;;;;340690;28;82385;-93
2022/12/23 00:43:09;;;;;;;;;;;11.80;99.90;12.10;99440.00;;;;340219;28;86530;-93
2022/12/23 00:43:21;;;;;;;;;;;11.80;99.90;12.10;99440.00;;;;341585;28;83505;-92
2022/12/23 00:43:33;;;;;;;;;;;11.80;99.90;12.10;99438.00;;;;341510;28;89337;-93
2022/12/23 00:43:45;;;;;;;;;;;11.80;99.90;12.10;99437.00;;;;339395;28;82428;-93
2022/12/23 00:43:56;;;;;;;;;;;11.80;99.90;12.10;99445.00;;;;339943;28;90695;-93
2022/12/23 00:44:09;;;;;;;;;;;11.80;99.90;12.20;99436.00;;;;340691;28;82261;-93
2022/12/23 00:44:21;;;;;;;;;;;11.80;99.90;12.20;99441.00;;;;341559;28;89429;-94
2022/12/23 00:44:32;;;;;;;;;;;11.80;99.90;12.20;99437.00;;;;341648;28;82620;-93
2022/12/23 00:44:44;;;;;;;;;;;11.80;99.90;12.20;99437.00;;;;340273;28;88873;-92
2022/12/23 00:45:14;;;;;;;;;;;11.80;99.90;12.10;99439.00;;;;340437;28;83532;-93
2022/12/23 00:45:26;;;;;;;;;;;11.80;99.90;12.20;99436.00;;;;338761;28;88174;-92
2022/12/23 00:45:38;;;;;;;;;;;11.80;99.90;12.10;99438.00;;;;339199;28;83421;-92
2022/12/23 00:45:50;;;;;;;;;;;11.80;99.90;12.10;99438.00;;;;338501;28;89153;-92
2022/12/23 00:46:02;;;;;;;;;;;11.80;99.90;12.20;99439.00;;;;339196;28;83462;-94
2022/12/23 00:46:14;;;;;;;;;;;11.80;99.90;12.20;99432.00;;;;341614;28;87788;-93
2022/12/23 00:46:25;;;;;;;;;;;11.80;99.90;12.30;99434.00;;;;340474;28;83471;-93
2022/12/23 00:46:37;;;;;;;;;;;11.80;99.90;12.20;99435.00;;;;340138;28;89650;-94
2022/12/23 00:46:49;;;;;;;;;;;11.80;99.90;12.20;99429.00;;;;340259;28;82560;-92
2022/12/23 00:47:01;;;;;;;;;;;11.80;99.90;12.20;99430.00;;;;338867;28;88528;-93
2022/12/23 00:49:40;;;;;;;;;;;11.80;99.90;12.20;99433.00;;;;340596;28;83284;-93
2022/12/23 00:49:47;;;;;;;;;;;11.80;99.90;12.20;99434.00;;;;341562;28;88930;-92
2022/12/23 00:49:59;;;;;;;;;;;11.80;99.90;12.20;99436.00;;;;340974;28;83462;-92
2022/12/23 00:50:10;;;;;;;;;;;11.80;99.90;12.20;99435.00;;;;340246;28;87644;-94
2022/12/23 00:50:22;;;;;;;;;;;11.80;99.90;12.20;99433.00;;;;340729;28;83187;-94
2022/12/23 00:50:35;;;;;;;;;;;11.80;99.90;12.20;99441.00;;;;338559;28;91657;-93
2022/12/23 00:50:49;;;;;;;;;;;11.80;99.90;12.20;99445.00;;;;339309;28;83355;-93
2022/12/23 00:51:01;;;;;;;;;;;11.80;99.90;12.20;99440.00;;;;341405;28;91216;-94
2022/12/23 00:51:13;;;;;;;;;;;11.80;99.90;12.20;99444.00;;;;340564;28;83368;-93
2022/12/23 00:51:25;;;;;;;;;;;11.80;99.90;12.20;99436.00;;;;340127;28;90396;-93
2022/12/23 00:51:36;;;;;;;;;;;11.80;99.90;12.20;99437.00;;;;339201;28;82634;-92
2022/12/23 00:51:48;;;;;;;;;;;11.80;99.90;12.20;99435.00;;;;342210;28;87862;-93
2022/12/23 00:52:00;;;;;;;;;;;11.80;99.90;12.20;99433.00;;;;343209;28;83493;-91
2022/12/23 00:52:13;;;;;;;;;;;11.80;99.90;12.20;99439.00;;;;341566;28;88356;-93
2022/12/23 00:52:24;;;;;;;;;;;11.80;99.90;12.30;99437.00;;;;339261;28;82608;-92
2022/12/23 00:52:36;;;;;;;;;;;11.80;99.90;12.30;99435.00;;;;341467;28;89176;-92
2022/12/23 00:52:48;;;;;;;;;;;11.90;99.90;12.20;99440.00;;;;341972;28;83203;-93
2022/12/23 00:53:00;;;;;;;;;;;11.80;99.90;12.30;99429.00;;;;339725;28;90496;-93
2022/12/23 00:53:11;;;;;;;;;;;11.80;99.90;12.30;99439.00;;;;341954;28;82358;-93
2022/12/23 00:53:23;;;;;;;;;;;11.80;99.90;12.30;99433.00;;;;341108;28;89262;-93
2022/12/23 00:53:35;;;;;;;;;;;11.80;99.90;12.40;99432.00;;;;339282;28;83427;-93
2022/12/23 00:53:47;;;;;;;;;;;11.90;99.90;12.50;99433.00;;;;338599;28;91557;-92
2022/12/23 00:53:58;;;;;;;;;;;11.90;99.90;12.50;99431.00;;;;341971;28;83713;-93
2022/12/23 00:54:10;;;;;;;;;;;11.90;99.90;12.40;99429.00;;;;342221;28;90393;-93
2022/12/23 00:54:22;;;;;;;;;;;11.90;99.90;12.40;99426.00;;;;341926;28;83432;-93
2022/12/23 00:54:34;;;;;;;;;;;11.90;99.90;12.40;99436.00;;;;341107;28;88579;-92
2022/12/23 00:54:45;;;;;;;;;;;11.90;99.90;12.50;99426.00;;;;344696;28;83373;-93
2022/12/23 00:54:57;;;;;;;;;;;11.90;99.90;12.50;99437.00;;;;342638;28;90372;-93
2022/12/23 00:55:09;;;;;;;;;;;11.90;99.90;12.50;99441.00;;;;341926;28;82507;-92
2022/12/23 00:55:21;;;;;;;;;;;11.90;99.90;12.40;99433.00;;;;341514;28;89112;-92
2022/12/23 00:55:33;;;;;;;;;;;12.00;99.90;12.40;99437.00;;;;344445;28;83598;-92
2022/12/23 00:55:46;;;;;;;;;;;12.00;99.90;12.40;99438.00;;;;344217;28;88009;-93
2022/12/23 00:55:58;;;;;;;;;;;12.00;99.90;12.50;99437.00;;;;344881;28;83326;-92
2022/12/23 00:56:10;;;;;;;;;;;12.00;99.90;12.50;99443.00;;;;342995;28;87090;-92
2022/12/23 00:56:21;;;;;;;;;;;12.00;99.90;12.50;99438.00;;;;342058;28;83230;-93
2022/12/23 00:56:33;;;;;;;;;;;12.00;99.90;12.50;99435.00;;;;341417;28;91245;-93
2022/12/23 00:56:45;;;;;;;;;;;12.00;99.90;12.50;99443.00;;;;342031;28;83321;-93
2022/12/23 00:56:57;;;;;;;;;;;12.00;99.90;12.50;99430.00;;;;341626;28;89613;-93
2022/12/23 00:57:09;;;;;;;;;;;12.00;99.90;12.50;99433.00;;;;344734;28;82503;-92
2022/12/23 00:57:21;;;;;;;;;;;12.00;99.90;12.40;99439.00;;;;343857;28;90616;-92
2022/12/23 00:57:33;;;;;;;;;;;12.00;99.90;12.50;99434.00;;;;343293;28;82344;-93
2022/12/23 00:57:45;;;;;;;;;;;12.00;99.90;12.50;99438.00;;;;342914;28;89036;-93
2022/12/23 00:57:57;;;;;;;;;;;12.00;99.90;12.40;99433.00;;;;343192;28;82480;-93
2022/12/23 00:58:08;;;;;;;;;;;12.00;99.90;12.40;99434.00;;;;342545;28;88084;-93
2022/12/23 00:58:20;;;;;;;;;;;12.00;99.90;12.40;99429.00;;;;343363;28;82418;-93
2022/12/23 00:58:32;;;;;;;;;;;12.00;99.90;12.40;99433.00;;;;341459;28;89135;-92
2022/12/23 00:58:44;;;;;;;;;;;12.10;99.90;12.50;99430.00;;;;343048;28;83369;-92
2022/12/23 00:58:56;;;;;;;;;;;12.00;99.90;12.40;99430.00;;;;342425;28;88366;-92
2022/12/23 00:59:08;;;;;;;;;;;12.00;99.90;12.40;99427.00;;;;343027;28;83548;-92
2022/12/23 00:59:20;;;;;;;;;;;12.00;99.90;12.50;99437.00;;;;341246;28;90483;-93
2022/12/23 00:59:32;;;;;;;;;;;12.00;99.90;12.40;99437.00;;;;343121;28;83437;-92
2022/12/23 00:59:44;;;;;;;;;;;12.00;99.90;12.40;99434.00;;;;340218;28;87783;-92
2022/12/23 00:59:55;;;;;;;;;;;12.00;99.90;12.40;99441.00;;;;341947;28;82443;-93
2022/12/23 01:00:08;;;;;;;;;;;12.00;99.90;12.30;99444.00;;;;344205;28;88465;-93
2022/12/23 01:05:35;;;;;;;;;;;12.00;99.90;12.30;99442.00;;;;344693;28;83263;-93
2022/12/23 01:05:37;;;;;;;;;;;12.00;99.90;12.40;99442.00;;;;345012;28;82466;-93
2022/12/23 01:05:49;;;;;;;;;;;12.00;99.90;12.30;99452.00;;;;344148;28;89278;-93
2022/12/23 01:06:01;;;;;;;;;;;12.00;99.90;12.30;99450.00;;;;343045;28;83400;-93
2022/12/23 01:06:13;;;;;;;;;;;12.00;99.90;12.30;99453.00;;;;343010;28;88600;-93
2022/12/23 01:06:25;;;;;;;;;;;12.00;99.90;12.30;99451.00;;;;344533;28;83538;-93
2022/12/23 01:06:37;;;;;;;;;;;12.00;99.90;12.30;99448.00;;;;342832;28;90345;-93
2022/12/23 01:06:49;;;;;;;;;;;12.00;99.90;12.40;99450.00;;;;343072;28;83501;-93
2022/12/23 01:07:03;;;;;;;;;;;12.00;99.90;12.40;99449.00;;;;340242;28;89571;-94
2022/12/23 01:07:15;;;;;;;;;;;12.00;99.90;12.50;99446.00;;;;343267;28;82558;-92
2022/12/23 01:07:26;;;;;;;;;;;12.00;99.90;12.50;99437.00;;;;341406;28;89251;-93
2022/12/23 01:07:38;;;;;;;;;;;12.00;99.90;12.50;99433.00;;;;340741;28;83213;-93
2022/12/23 01:07:51;;;;;;;;;;;12.00;99.90;12.50;99446.00;;;;342602;28;90175;-93
2022/12/23 01:08:04;;;;;;;;;;;12.00;99.90;12.50;99439.00;;;;343138;28;82583;-93
2022/12/23 01:08:16;;;;;;;;;;;12.00;99.90;12.50;99449.00;;;;342446;28;88484;-93
2022/12/23 01:08:28;;;;;;;;;;;12.00;99.90;12.50;99451.00;;;;344491;28;82459;-93
2022/12/23 01:08:40;;;;;;;;;;;12.00;99.90;12.40;99446.00;;;;342611;28;89003;-93
2022/12/23 01:08:51;;;;;;;;;;;12.00;99.90;12.40;99441.00;;;;344384;28;83334;-93
2022/12/23 01:09:03;;;;;;;;;;;12.00;99.90;12.50;99445.00;;;;343961;28;88452;-92
2022/12/23 01:09:15;;;;;;;;;;;12.00;99.90;12.40;99438.00;;;;344678;28;83476;-93
2022/12/23 01:09:27;;;;;;;;;;;12.00;99.90;12.50;99437.00;;;;343096;28;86548;-92
2022/12/23 01:09:39;;;;;;;;;;;12.00;99.90;12.40;99437.00;;;;344717;28;83260;-93
2022/12/23 01:09:50;;;;;;;;;;;12.00;99.90;12.50;99444.00;;;;340135;28;89964;-93
2022/12/23 01:10:03;;;;;;;;;;;12.00;99.90;12.50;99443.00;;;;342043;28;83435;-93
2022/12/23 01:10:15;;;;;;;;;;;12.00;99.90;12.50;99440.00;;;;343000;28;90941;-94
2022/12/23 01:10:27;;;;;;;;;;;12.00;99.90;12.50;99442.00;;;;341930;28;83482;-92
2022/12/23 01:10:39;;;;;;;;;;;12.00;99.90;12.40;99434.00;;;;341400;28;91589;-92
2022/12/23 01:10:51;;;;;;;;;;;12.00;99.90;12.40;99443.00;;;;341802;28;82496;-92
2022/12/23 01:11:05;;;;;;;;;;;12.00;99.90;12.40;99446.00;;;;341445;28;88774;-93
2022/12/23 01:11:16;;;;;;;;;;;12.00;99.90;12.40;99448.00;;;;342048;28;83458;-93
2022/12/23 01:11:28;;;;;;;;;;;12.00;99.90;12.40;99446.00;;;;340300;28;89788;-92
2022/12/23 01:11:40;;;;;;;;;;;12.00;99.90;12.40;99444.00;;;;340950;28;83356;-93
2022/12/23 01:11:52;;;;;;;;;;;12.00;99.90;12.40;99438.00;;;;343175;28;87484;-92
2022/12/23 01:12:04;;;;;;;;;;;12.00;99.90;12.30;99444.00;;;;343361;28;83410;-92
2022/12/23 01:12:16;;;;;;;;;;;12.00;99.90;12.50;99446.00;;;;342879;28;90368;-93
2022/12/23 01:12:28;;;;;;;;;;;12.00;99.90;12.50;99447.00;;;;343350;28;83291;-92
2022/12/23 01:12:40;;;;;;;;;;;12.00;99.90;12.60;99440.00;;;;341201;28;92017;-93
2022/12/23 01:12:52;;;;;;;;;;;12.00;99.90;12.60;99448.00;;;;342054;28;83341;-93
2022/12/23 01:13:03;;;;;;;;;;;12.00;99.90;12.50;99441.00;;;;342699;28;91538;-92
2022/12/23 01:13:15;;;;;;;;;;;12.00;99.90;12.40;99446.00;;;;344401;28;82758;-93
2022/12/23 01:13:27;;;;;;;;;;;12.00;99.90;12.50;99446.00;;;;342729;28;90659;-93
2022/12/23 01:13:39;;;;;;;;;;;12.00;99.90;12.50;99443.00;;;;343150;28;82605;-93
2022/12/23 01:13:51;;;;;;;;;;;12.00;99.90;12.40;99446.00;;;;344248;28;89090;-93
2022/12/23 01:14:02;;;;;;;;;;;12.00;99.90;12.40;99441.00;;;;341977;28;83475;-93
2022/12/23 01:14:16;;;;;;;;;;;12.00;99.90;12.40;99446.00;;;;341529;28;91768;-92
2022/12/23 01:14:28;;;;;;;;;;;12.00;99.90;12.50;99444.00;;;;344730;28;82388;-93
2022/12/23 01:14:40;;;;;;;;;;;12.00;99.90;12.50;99447.00;;;;341491;28;90550;-93
2022/12/23 01:14:52;;;;;;;;;;;12.00;99.90;12.60;99440.00;;;;344638;28;83491;-93
2022/12/23 01:15:04;;;;;;;;;;;12.00;99.90;12.50;99444.00;;;;344007;28;90837;-93
2022/12/23 01:15:16;;;;;;;;;;;12.00;99.90;12.40;99442.00;;;;341659;28;82416;-92
2022/12/23 01:15:28;;;;;;;;;;;12.00;99.90;12.40;99448.00;;;;341378;28;88287;-93
2022/12/23 01:15:40;;;;;;;;;;;12.00;99.90;12.40;99447.00;;;;342029;28;83389;-92
2022/12/23 01:15:52;;;;;;;;;;;12.00;99.90;12.40;99438.00;;;;341166;28;90786;-92
2022/12/23 01:16:06;;;;;;;;;;;12.00;99.90;12.50;99449.00;;;;343126;28;83622;-93
2022/12/23 01:16:27;;;;;;;;;;;12.00;99.90;12.50;99439.00;;;;341562;28;88023;-92
2022/12/23 01:16:39;;;;;;;;;;;12.00;99.90;12.40;99447.00;;;;343387;28;83333;-93
2022/12/23 01:16:51;;;;;;;;;;;12.00;99.90;12.40;99443.00;;;;342679;28;92492;-93
2022/12/23 01:17:04;;;;;;;;;;;12.00;99.90;12.40;99448.00;;;;342909;28;82625;-93
2022/12/23 01:17:16;;;;;;;;;;;12.00;99.90;12.40;99450.00;;;;341351;28;89238;-93
2022/12/23 01:17:28;;;;;;;;;;;12.00;99.90;12.40;99443.00;;;;343418;28;83343;-92
2022/12/23 01:17:40;;;;;;;;;;;12.00;99.90;12.40;99436.00;;;;342833;28;89844;-94
2022/12/23 01:17:52;;;;;;;;;;;12.00;99.90;12.40;99445.00;;;;343333;28;83078;-93